sensor_id;sensor_type;location;lat;lon;timestamp;P1;durP1;ratioP1;P2;durP2;ratioP2
69256;SDS011;56376;53.356;-1.748;2024-02-04T00:00:43;8.32;;;2.80;;
69256;SDS011;56376;53.356;-1.748;2024-02-04T00:03:09;4.07;;;2.47;;
69256;SDS011;56376;53.356;-1.748;2024-02-04T00:05:34;8.27;;;3.65;;
69256;SDS011;56376;53.356;-1.748;2024-02-04T00:08:00;10.70;;;3.00;;
69256;SDS011;56376;53.356;-1.748;2024-02-04T00:10:25;11.23;;;3.38;;
69256;SDS011;56376;53.356;-1.748;2024-02-04T00:12:52;14.20;;;4.13;;
69256;SDS011;56376;53.356;-1.748;2024-02-04T00:15:17;7.32;;;3.03;;
69256;SDS011;56376;53.356;-1.748;2024-02-04T00:17:43;8.07;;;2.90;;
69256;SDS011;56376;53.356;-1.748;2024-02-04T00:20:08;5.95;;;2.47;;
69256;SDS011;56376;53.356;-1.748;2024-02-04T00:22:34;6.93;;;2.30;;
69256;SDS011;56376;53.356;-1.748;2024-02-04T00:25:00;5.45;;;2.58;;
69256;SDS011;56376;53.356;-1.748;2024-02-04T00:27:35;7.13;;;2.42;;
69256;SDS011;56376;53.356;-1.748;2024-02-04T00:30:00;3.28;;;2.20;;
69256;SDS011;56376;53.356;-1.748;2024-02-04T00:32:26;11.40;;;2.20;;
69256;SDS011;56376;53.356;-1.748;2024-02-04T00:34:52;10.82;;;2.72;;
69256;SDS011;56376;53.356;-1.748;2024-02-04T00:37:18;6.95;;;2.10;;
69256;SDS011;56376;53.356;-1.748;2024-02-04T00:39:44;8.70;;;2.40;;
69256;SDS011;56376;53.356;-1.748;2024-02-04T00:42:09;9.95;;;2.10;;
69256;SDS011;56376;53.356;-1.748;2024-02-04T00:44:35;5.93;;;2.13;;
69256;SDS011;56376;53.356;-1.748;2024-02-04T00:47:01;5.47;;;1.90;;
69256;SDS011;56376;53.356;-1.748;2024-02-04T00:49:27;6.22;;;1.70;;
69256;SDS011;56376;53.356;-1.748;2024-02-04T00:51:52;5.88;;;2.00;;
69256;SDS011;56376;53.356;-1.748;2024-02-04T00:54:18;7.25;;;1.95;;
69256;SDS011;56376;53.356;-1.748;2024-02-04T00:56:44;4.72;;;2.20;;
69256;SDS011;56376;53.356;-1.748;2024-02-04T00:59:09;8.63;;;1.75;;
69256;SDS011;56376;53.356;-1.748;2024-02-04T01:01:35;3.60;;;1.40;;
69256;SDS011;56376;53.356;-1.748;2024-02-04T01:04:02;6.45;;;1.70;;
69256;SDS011;56376;53.356;-1.748;2024-02-04T01:06:28;6.18;;;1.40;;
69256;SDS011;56376;53.356;-1.748;2024-02-04T01:08:54;11.10;;;2.58;;
69256;SDS011;56376;53.356;-1.748;2024-02-04T01:11:19;3.65;;;1.40;;
69256;SDS011;56376;53.356;-1.748;2024-02-04T01:13:45;5.55;;;1.40;;
69256;SDS011;56376;53.356;-1.748;2024-02-04T01:16:11;9.32;;;1.73;;
69256;SDS011;56376;53.356;-1.748;2024-02-04T01:18:36;7.75;;;1.80;;
69256;SDS011;56376;53.356;-1.748;2024-02-04T01:21:02;5.22;;;1.38;;
69256;SDS011;56376;53.356;-1.748;2024-02-04T01:23:27;4.65;;;1.38;;
69256;SDS011;56376;53.356;-1.748;2024-02-04T01:25:53;4.22;;;1.40;;
69256;SDS011;56376;53.356;-1.748;2024-02-04T01:28:18;3.83;;;1.58;;
69256;SDS011;56376;53.356;-1.748;2024-02-04T01:30:44;3.50;;;1.30;;
69256;SDS011;56376;53.356;-1.748;2024-02-04T01:33:09;3.95;;;1.40;;
69256;SDS011;56376;53.356;-1.748;2024-02-04T01:35:35;5.68;;;1.30;;
69256;SDS011;56376;53.356;-1.748;2024-02-04T01:38:00;3.60;;;1.55;;
69256;SDS011;56376;53.356;-1.748;2024-02-04T01:40:26;4.93;;;1.60;;
69256;SDS011;56376;53.356;-1.748;2024-02-04T01:42:51;5.68;;;1.45;;
69256;SDS011;56376;53.356;-1.748;2024-02-04T01:45:17;8.15;;;1.50;;
69256;SDS011;56376;53.356;-1.748;2024-02-04T01:47:43;6.70;;;1.25;;
69256;SDS011;56376;53.356;-1.748;2024-02-04T01:50:09;8.20;;;1.55;;
69256;SDS011;56376;53.356;-1.748;2024-02-04T01:52:36;4.03;;;1.35;;
69256;SDS011;56376;53.356;-1.748;2024-02-04T01:55:04;4.88;;;1.30;;
69256;SDS011;56376;53.356;-1.748;2024-02-04T01:57:30;3.97;;;1.42;;
69256;SDS011;56376;53.356;-1.748;2024-02-04T01:59:56;3.28;;;1.30;;
69256;SDS011;56376;53.356;-1.748;2024-02-04T02:02:25;4.63;;;1.60;;
69256;SDS011;56376;53.356;-1.748;2024-02-04T02:04:50;3.13;;;1.35;;
69256;SDS011;56376;53.356;-1.748;2024-02-04T02:07:16;4.50;;;1.70;;
69256;SDS011;56376;53.356;-1.748;2024-02-04T02:09:45;3.80;;;1.25;;
69256;SDS011;56376;53.356;-1.748;2024-02-04T02:14:44;4.32;;;1.27;;
69256;SDS011;56376;53.356;-1.748;2024-02-04T02:17:12;5.20;;;1.30;;
69256;SDS011;56376;53.356;-1.748;2024-02-04T02:19:57;3.28;;;1.73;;
69256;SDS011;56376;53.356;-1.748;2024-02-04T02:22:50;3.22;;;1.30;;
69256;SDS011;56376;53.356;-1.748;2024-02-04T02:27:51;3.58;;;1.50;;
69256;SDS011;56376;53.356;-1.748;2024-02-04T02:30:17;4.10;;;1.58;;
69256;SDS011;56376;53.356;-1.748;2024-02-04T02:32:45;7.75;;;1.58;;
69256;SDS011;56376;53.356;-1.748;2024-02-04T02:35:16;6.50;;;2.45;;
69256;SDS011;56376;53.356;-1.748;2024-02-04T02:40:30;9.75;;;1.77;;
69256;SDS011;56376;53.356;-1.748;2024-02-04T02:43:03;3.35;;;1.60;;
69256;SDS011;56376;53.356;-1.748;2024-02-04T02:45:29;6.32;;;1.80;;
69256;SDS011;56376;53.356;-1.748;2024-02-04T02:47:57;4.45;;;1.77;;
69256;SDS011;56376;53.356;-1.748;2024-02-04T02:50:23;3.47;;;1.55;;
69256;SDS011;56376;53.356;-1.748;2024-02-04T02:52:49;5.28;;;2.00;;
69256;SDS011;56376;53.356;-1.748;2024-02-04T02:55:14;5.70;;;1.65;;
69256;SDS011;56376;53.356;-1.748;2024-02-04T02:57:40;5.78;;;1.65;;
69256;SDS011;56376;53.356;-1.748;2024-02-04T03:00:06;4.38;;;1.90;;
69256;SDS011;56376;53.356;-1.748;2024-02-04T03:02:33;9.27;;;1.75;;
69256;SDS011;56376;53.356;-1.748;2024-02-04T03:04:58;7.78;;;2.13;;
69256;SDS011;56376;53.356;-1.748;2024-02-04T03:07:24;7.50;;;2.88;;
69256;SDS011;56376;53.356;-1.748;2024-02-04T03:09:49;7.07;;;1.98;;
69256;SDS011;56376;53.356;-1.748;2024-02-04T03:12:16;5.63;;;1.67;;
69256;SDS011;56376;53.356;-1.748;2024-02-04T03:14:42;5.05;;;1.30;;
69256;SDS011;56376;53.356;-1.748;2024-02-04T03:17:07;3.72;;;1.70;;
69256;SDS011;56376;53.356;-1.748;2024-02-04T03:19:33;3.15;;;1.10;;
69256;SDS011;56376;53.356;-1.748;2024-02-04T03:21:59;7.07;;;1.27;;
69256;SDS011;56376;53.356;-1.748;2024-02-04T03:24:25;4.00;;;1.42;;
69256;SDS011;56376;53.356;-1.748;2024-02-04T03:26:50;3.10;;;1.40;;
69256;SDS011;56376;53.356;-1.748;2024-02-04T03:29:16;4.25;;;1.40;;
69256;SDS011;56376;53.356;-1.748;2024-02-04T03:31:41;4.68;;;1.65;;
69256;SDS011;56376;53.356;-1.748;2024-02-04T03:34:07;4.97;;;1.30;;
69256;SDS011;56376;53.356;-1.748;2024-02-04T03:36:32;3.28;;;1.35;;
69256;SDS011;56376;53.356;-1.748;2024-02-04T03:38:58;3.10;;;1.45;;
69256;SDS011;56376;53.356;-1.748;2024-02-04T03:41:23;6.13;;;1.88;;
69256;SDS011;56376;53.356;-1.748;2024-02-04T03:43:49;3.80;;;2.13;;
69256;SDS011;56376;53.356;-1.748;2024-02-04T03:46:15;3.70;;;2.08;;
69256;SDS011;56376;53.356;-1.748;2024-02-04T03:48:41;5.57;;;1.63;;
69256;SDS011;56376;53.356;-1.748;2024-02-04T03:51:07;4.13;;;2.20;;
69256;SDS011;56376;53.356;-1.748;2024-02-04T03:53:33;3.85;;;2.28;;
69256;SDS011;56376;53.356;-1.748;2024-02-04T03:55:59;2.72;;;1.83;;
69256;SDS011;56376;53.356;-1.748;2024-02-04T03:58:24;3.20;;;1.73;;
69256;SDS011;56376;53.356;-1.748;2024-02-04T04:00:57;6.10;;;2.13;;
69256;SDS011;56376;53.356;-1.748;2024-02-04T04:03:22;4.50;;;1.65;;
69256;SDS011;56376;53.356;-1.748;2024-02-04T04:05:48;5.22;;;2.65;;
69256;SDS011;56376;53.356;-1.748;2024-02-04T04:08:14;4.82;;;1.42;;
69256;SDS011;56376;53.356;-1.748;2024-02-04T04:10:40;3.03;;;1.40;;
69256;SDS011;56376;53.356;-1.748;2024-02-04T04:13:05;3.42;;;1.02;;
69256;SDS011;56376;53.356;-1.748;2024-02-04T04:15:31;3.67;;;1.33;;
69256;SDS011;56376;53.356;-1.748;2024-02-04T04:17:56;2.45;;;1.48;;
69256;SDS011;56376;53.356;-1.748;2024-02-04T04:20:22;4.22;;;1.83;;
69256;SDS011;56376;53.356;-1.748;2024-02-04T04:22:48;6.25;;;2.10;;
69256;SDS011;56376;53.356;-1.748;2024-02-04T04:25:14;6.18;;;2.13;;
69256;SDS011;56376;53.356;-1.748;2024-02-04T04:27:39;3.38;;;2.13;;
69256;SDS011;56376;53.356;-1.748;2024-02-04T04:30:05;5.25;;;1.98;;
69256;SDS011;56376;53.356;-1.748;2024-02-04T04:32:31;2.80;;;1.70;;
69256;SDS011;56376;53.356;-1.748;2024-02-04T04:34:57;2.15;;;1.55;;
69256;SDS011;56376;53.356;-1.748;2024-02-04T04:37:23;4.50;;;1.63;;
69256;SDS011;56376;53.356;-1.748;2024-02-04T04:39:48;2.08;;;1.05;;
69256;SDS011;56376;53.356;-1.748;2024-02-04T04:42:14;3.58;;;1.40;;
69256;SDS011;56376;53.356;-1.748;2024-02-04T04:44:39;2.20;;;1.13;;
69256;SDS011;56376;53.356;-1.748;2024-02-04T04:47:05;2.78;;;1.50;;
69256;SDS011;56376;53.356;-1.748;2024-02-04T04:49:31;3.35;;;1.20;;
69256;SDS011;56376;53.356;-1.748;2024-02-04T04:51:56;2.53;;;1.10;;
69256;SDS011;56376;53.356;-1.748;2024-02-04T04:54:22;2.85;;;0.98;;
69256;SDS011;56376;53.356;-1.748;2024-02-04T04:56:47;3.88;;;1.45;;
69256;SDS011;56376;53.356;-1.748;2024-02-04T04:59:14;1.50;;;1.00;;
69256;SDS011;56376;53.356;-1.748;2024-02-04T05:01:49;2.95;;;0.90;;
69256;SDS011;56376;53.356;-1.748;2024-02-04T05:04:15;3.08;;;1.25;;
69256;SDS011;56376;53.356;-1.748;2024-02-04T05:06:43;4.40;;;1.13;;
69256;SDS011;56376;53.356;-1.748;2024-02-04T05:09:09;3.78;;;1.08;;
69256;SDS011;56376;53.356;-1.748;2024-02-04T05:11:35;2.42;;;0.88;;
69256;SDS011;56376;53.356;-1.748;2024-02-04T05:14:01;2.88;;;1.00;;
69256;SDS011;56376;53.356;-1.748;2024-02-04T05:16:26;2.45;;;1.05;;
69256;SDS011;56376;53.356;-1.748;2024-02-04T05:18:52;1.75;;;0.70;;
69256;SDS011;56376;53.356;-1.748;2024-02-04T05:21:17;1.02;;;0.70;;
69256;SDS011;56376;53.356;-1.748;2024-02-04T05:23:43;2.15;;;1.33;;
69256;SDS011;56376;53.356;-1.748;2024-02-04T05:26:09;2.20;;;0.95;;
69256;SDS011;56376;53.356;-1.748;2024-02-04T05:28:34;2.10;;;0.60;;
69256;SDS011;56376;53.356;-1.748;2024-02-04T05:31:01;2.13;;;0.63;;
69256;SDS011;56376;53.356;-1.748;2024-02-04T05:33:27;0.73;;;0.57;;
69256;SDS011;56376;53.356;-1.748;2024-02-04T05:35:53;3.40;;;1.90;;
69256;SDS011;56376;53.356;-1.748;2024-02-04T05:38:18;1.63;;;0.65;;
69256;SDS011;56376;53.356;-1.748;2024-02-04T05:40:44;1.58;;;0.80;;
69256;SDS011;56376;53.356;-1.748;2024-02-04T05:43:10;4.10;;;1.00;;
69256;SDS011;56376;53.356;-1.748;2024-02-04T05:45:38;3.17;;;1.02;;
69256;SDS011;56376;53.356;-1.748;2024-02-04T05:48:06;1.77;;;1.00;;
69256;SDS011;56376;53.356;-1.748;2024-02-04T05:50:32;2.28;;;1.08;;
69256;SDS011;56376;53.356;-1.748;2024-02-04T05:52:58;3.33;;;1.38;;
69256;SDS011;56376;53.356;-1.748;2024-02-04T05:55:23;4.22;;;1.10;;
69256;SDS011;56376;53.356;-1.748;2024-02-04T05:57:49;1.95;;;1.10;;
69256;SDS011;56376;53.356;-1.748;2024-02-04T06:00:14;3.78;;;1.27;;
69256;SDS011;56376;53.356;-1.748;2024-02-04T06:02:40;2.80;;;1.20;;
69256;SDS011;56376;53.356;-1.748;2024-02-04T06:05:08;1.50;;;0.95;;
69256;SDS011;56376;53.356;-1.748;2024-02-04T06:07:34;3.00;;;1.30;;
69256;SDS011;56376;53.356;-1.748;2024-02-04T06:09:59;1.67;;;1.52;;
69256;SDS011;56376;53.356;-1.748;2024-02-04T06:12:26;2.45;;;1.40;;
69256;SDS011;56376;53.356;-1.748;2024-02-04T06:14:52;3.20;;;1.67;;
69256;SDS011;56376;53.356;-1.748;2024-02-04T06:17:17;3.33;;;1.20;;
69256;SDS011;56376;53.356;-1.748;2024-02-04T06:19:42;4.50;;;1.52;;
69256;SDS011;56376;53.356;-1.748;2024-02-04T06:22:08;3.53;;;1.52;;
69256;SDS011;56376;53.356;-1.748;2024-02-04T06:24:34;1.88;;;1.50;;
69256;SDS011;56376;53.356;-1.748;2024-02-04T06:27:02;2.75;;;1.30;;
69256;SDS011;56376;53.356;-1.748;2024-02-04T06:29:28;2.38;;;1.50;;
69256;SDS011;56376;53.356;-1.748;2024-02-04T06:31:53;1.40;;;1.30;;
69256;SDS011;56376;53.356;-1.748;2024-02-04T06:34:19;1.70;;;1.30;;
69256;SDS011;56376;53.356;-1.748;2024-02-04T06:36:44;1.60;;;1.42;;
69256;SDS011;56376;53.356;-1.748;2024-02-04T06:39:10;2.22;;;1.30;;
69256;SDS011;56376;53.356;-1.748;2024-02-04T06:41:36;2.70;;;1.20;;
69256;SDS011;56376;53.356;-1.748;2024-02-04T06:44:03;2.95;;;1.13;;
69256;SDS011;56376;53.356;-1.748;2024-02-04T06:46:29;1.67;;;1.20;;
69256;SDS011;56376;53.356;-1.748;2024-02-04T06:48:55;1.13;;;0.90;;
69256;SDS011;56376;53.356;-1.748;2024-02-04T06:51:20;1.67;;;1.58;;
69256;SDS011;56376;53.356;-1.748;2024-02-04T06:53:46;1.98;;;1.10;;
69256;SDS011;56376;53.356;-1.748;2024-02-04T06:56:12;1.45;;;1.10;;
69256;SDS011;56376;53.356;-1.748;2024-02-04T06:58:38;1.20;;;1.10;;
69256;SDS011;56376;53.356;-1.748;2024-02-04T07:01:04;2.83;;;1.00;;
69256;SDS011;56376;53.356;-1.748;2024-02-04T07:03:30;1.08;;;0.95;;
69256;SDS011;56376;53.356;-1.748;2024-02-04T07:05:57;1.00;;;0.90;;
69256;SDS011;56376;53.356;-1.748;2024-02-04T07:08:22;0.80;;;0.80;;
69256;SDS011;56376;53.356;-1.748;2024-02-04T07:10:48;1.38;;;0.93;;
69256;SDS011;56376;53.356;-1.748;2024-02-04T07:13:14;1.58;;;0.80;;
69256;SDS011;56376;53.356;-1.748;2024-02-04T07:15:41;1.02;;;0.88;;
69256;SDS011;56376;53.356;-1.748;2024-02-04T07:18:06;2.55;;;1.05;;
69256;SDS011;56376;53.356;-1.748;2024-02-04T07:20:32;2.42;;;0.80;;
69256;SDS011;56376;53.356;-1.748;2024-02-04T07:22:58;1.33;;;1.02;;
69256;SDS011;56376;53.356;-1.748;2024-02-04T07:25:23;0.70;;;0.70;;
69256;SDS011;56376;53.356;-1.748;2024-02-04T07:27:49;1.05;;;0.82;;
69256;SDS011;56376;53.356;-1.748;2024-02-04T07:30:14;0.85;;;0.55;;
69256;SDS011;56376;53.356;-1.748;2024-02-04T07:32:40;0.55;;;0.55;;
69256;SDS011;56376;53.356;-1.748;2024-02-04T07:35:06;0.52;;;0.50;;
69256;SDS011;56376;53.356;-1.748;2024-02-04T07:37:33;0.70;;;0.70;;
69256;SDS011;56376;53.356;-1.748;2024-02-04T07:40:00;0.55;;;0.55;;
69256;SDS011;56376;53.356;-1.748;2024-02-04T07:42:26;1.38;;;0.50;;
69256;SDS011;56376;53.356;-1.748;2024-02-04T07:44:52;0.43;;;0.43;;
69256;SDS011;56376;53.356;-1.748;2024-02-04T07:47:18;0.60;;;0.60;;
69256;SDS011;56376;53.356;-1.748;2024-02-04T07:49:46;0.60;;;0.60;;
69256;SDS011;56376;53.356;-1.748;2024-02-04T07:52:12;1.70;;;0.70;;
69256;SDS011;56376;53.356;-1.748;2024-02-04T07:54:38;0.77;;;0.70;;
69256;SDS011;56376;53.356;-1.748;2024-02-04T07:57:03;1.23;;;0.80;;
69256;SDS011;56376;53.356;-1.748;2024-02-04T07:59:29;0.55;;;0.55;;
69256;SDS011;56376;53.356;-1.748;2024-02-04T08:01:55;0.70;;;0.70;;
69256;SDS011;56376;53.356;-1.748;2024-02-04T08:04:20;0.60;;;0.60;;
69256;SDS011;56376;53.356;-1.748;2024-02-04T08:06:46;1.10;;;0.90;;
69256;SDS011;56376;53.356;-1.748;2024-02-04T08:09:11;0.47;;;0.47;;
69256;SDS011;56376;53.356;-1.748;2024-02-04T08:11:37;0.50;;;0.50;;
69256;SDS011;56376;53.356;-1.748;2024-02-04T08:14:04;2.85;;;1.35;;
69256;SDS011;56376;53.356;-1.748;2024-02-04T08:16:29;1.15;;;0.75;;
69256;SDS011;56376;53.356;-1.748;2024-02-04T08:18:55;0.82;;;0.70;;
69256;SDS011;56376;53.356;-1.748;2024-02-04T08:21:21;2.05;;;1.00;;
69256;SDS011;56376;53.356;-1.748;2024-02-04T08:23:48;0.82;;;0.70;;
69256;SDS011;56376;53.356;-1.748;2024-02-04T08:26:13;0.77;;;0.77;;
69256;SDS011;56376;53.356;-1.748;2024-02-04T08:28:39;2.92;;;1.20;;
69256;SDS011;56376;53.356;-1.748;2024-02-04T08:31:05;1.27;;;0.95;;
69256;SDS011;56376;53.356;-1.748;2024-02-04T08:33:30;1.38;;;0.90;;
69256;SDS011;56376;53.356;-1.748;2024-02-04T08:35:56;0.70;;;0.70;;
69256;SDS011;56376;53.356;-1.748;2024-02-04T08:38:22;1.27;;;1.10;;
69256;SDS011;56376;53.356;-1.748;2024-02-04T08:40:47;0.95;;;0.95;;
69256;SDS011;56376;53.356;-1.748;2024-02-04T08:43:13;1.20;;;1.10;;
69256;SDS011;56376;53.356;-1.748;2024-02-04T08:45:38;0.90;;;0.90;;
69256;SDS011;56376;53.356;-1.748;2024-02-04T08:48:04;1.30;;;1.20;;
69256;SDS011;56376;53.356;-1.748;2024-02-04T08:50:29;1.95;;;1.40;;
69256;SDS011;56376;53.356;-1.748;2024-02-04T08:52:55;1.20;;;1.10;;
69256;SDS011;56376;53.356;-1.748;2024-02-04T08:55:21;2.20;;;1.20;;
69256;SDS011;56376;53.356;-1.748;2024-02-04T08:57:46;0.95;;;0.95;;
69256;SDS011;56376;53.356;-1.748;2024-02-04T09:00:13;0.75;;;0.75;;
69256;SDS011;56376;53.356;-1.748;2024-02-04T09:02:41;0.95;;;0.95;;
69256;SDS011;56376;53.356;-1.748;2024-02-04T09:05:06;0.93;;;0.90;;
69256;SDS011;56376;53.356;-1.748;2024-02-04T09:07:32;0.90;;;0.80;;
69256;SDS011;56376;53.356;-1.748;2024-02-04T09:09:58;1.02;;;0.80;;
69256;SDS011;56376;53.356;-1.748;2024-02-04T09:12:25;1.10;;;0.80;;
69256;SDS011;56376;53.356;-1.748;2024-02-04T09:14:50;0.93;;;0.90;;
69256;SDS011;56376;53.356;-1.748;2024-02-04T09:17:16;0.70;;;0.70;;
69256;SDS011;56376;53.356;-1.748;2024-02-04T09:19:41;0.60;;;0.60;;
69256;SDS011;56376;53.356;-1.748;2024-02-04T09:22:07;0.50;;;0.50;;
69256;SDS011;56376;53.356;-1.748;2024-02-04T09:24:32;1.52;;;0.73;;
69256;SDS011;56376;53.356;-1.748;2024-02-04T09:26:58;0.60;;;0.60;;
69256;SDS011;56376;53.356;-1.748;2024-02-04T09:29:24;0.47;;;0.47;;
69256;SDS011;56376;53.356;-1.748;2024-02-04T09:31:49;1.00;;;0.70;;
69256;SDS011;56376;53.356;-1.748;2024-02-04T09:34:16;0.52;;;0.50;;
69256;SDS011;56376;53.356;-1.748;2024-02-04T09:36:43;0.85;;;0.70;;
69256;SDS011;56376;53.356;-1.748;2024-02-04T09:39:08;0.50;;;0.50;;
69256;SDS011;56376;53.356;-1.748;2024-02-04T09:41:34;1.30;;;0.57;;
69256;SDS011;56376;53.356;-1.748;2024-02-04T09:43:59;0.60;;;0.60;;
69256;SDS011;56376;53.356;-1.748;2024-02-04T09:46:28;0.73;;;0.73;;
69256;SDS011;56376;53.356;-1.748;2024-02-04T09:48:54;0.77;;;0.77;;
69256;SDS011;56376;53.356;-1.748;2024-02-04T09:51:20;0.60;;;0.60;;
69256;SDS011;56376;53.356;-1.748;2024-02-04T09:53:46;1.10;;;0.85;;
69256;SDS011;56376;53.356;-1.748;2024-02-04T09:56:16;0.93;;;0.80;;
69256;SDS011;56376;53.356;-1.748;2024-02-04T09:58:43;1.73;;;1.27;;
69256;SDS011;56376;53.356;-1.748;2024-02-04T10:01:09;2.65;;;1.63;;
69256;SDS011;56376;53.356;-1.748;2024-02-04T10:03:36;2.00;;;1.77;;
69256;SDS011;56376;53.356;-1.748;2024-02-04T10:06:02;3.72;;;1.42;;
69256;SDS011;56376;53.356;-1.748;2024-02-04T10:08:28;2.42;;;1.50;;
69256;SDS011;56376;53.356;-1.748;2024-02-04T10:10:53;2.28;;;1.17;;
69256;SDS011;56376;53.356;-1.748;2024-02-04T10:13:19;2.28;;;1.52;;
69256;SDS011;56376;53.356;-1.748;2024-02-04T10:15:46;3.03;;;1.45;;
69256;SDS011;56376;53.356;-1.748;2024-02-04T10:18:12;2.53;;;1.60;;
69256;SDS011;56376;53.356;-1.748;2024-02-04T10:20:38;3.95;;;1.73;;
69256;SDS011;56376;53.356;-1.748;2024-02-04T10:23:03;3.35;;;1.60;;
69256;SDS011;56376;53.356;-1.748;2024-02-04T10:25:29;1.40;;;1.30;;
69256;SDS011;56376;53.356;-1.748;2024-02-04T10:27:55;2.42;;;1.30;;
69256;SDS011;56376;53.356;-1.748;2024-02-04T10:30:21;2.38;;;1.60;;
69256;SDS011;56376;53.356;-1.748;2024-02-04T10:32:49;3.25;;;1.52;;
69256;SDS011;56376;53.356;-1.748;2024-02-04T10:35:16;2.95;;;1.50;;
69256;SDS011;56376;53.356;-1.748;2024-02-04T10:37:47;2.00;;;1.40;;
69256;SDS011;56376;53.356;-1.748;2024-02-04T10:40:12;2.58;;;1.30;;
69256;SDS011;56376;53.356;-1.748;2024-02-04T10:42:38;1.73;;;1.30;;
69256;SDS011;56376;53.356;-1.748;2024-02-04T10:45:06;2.72;;;1.50;;
69256;SDS011;56376;53.356;-1.748;2024-02-04T10:47:35;3.20;;;1.27;;
69256;SDS011;56376;53.356;-1.748;2024-02-04T10:50:02;2.78;;;1.23;;
69256;SDS011;56376;53.356;-1.748;2024-02-04T10:52:29;2.05;;;1.20;;
69256;SDS011;56376;53.356;-1.748;2024-02-04T10:55:07;2.13;;;1.33;;
69256;SDS011;56376;53.356;-1.748;2024-02-04T10:57:37;3.00;;;1.40;;
69256;SDS011;56376;53.356;-1.748;2024-02-04T11:00:04;1.27;;;1.10;;
69256;SDS011;56376;53.356;-1.748;2024-02-04T11:02:36;3.83;;;1.67;;
69256;SDS011;56376;53.356;-1.748;2024-02-04T11:05:04;2.85;;;1.45;;
69256;SDS011;56376;53.356;-1.748;2024-02-04T11:07:34;1.88;;;1.30;;
69256;SDS011;56376;53.356;-1.748;2024-02-04T11:10:00;2.40;;;1.42;;
69256;SDS011;56376;53.356;-1.748;2024-02-04T11:12:26;3.17;;;1.48;;
69256;SDS011;56376;53.356;-1.748;2024-02-04T11:14:59;2.60;;;1.40;;
69256;SDS011;56376;53.356;-1.748;2024-02-04T11:23:11;2.95;;;1.33;;
69256;SDS011;56376;53.356;-1.748;2024-02-04T11:25:45;3.60;;;1.48;;
69256;SDS011;56376;53.356;-1.748;2024-02-04T11:28:15;4.43;;;1.73;;
69256;SDS011;56376;53.356;-1.748;2024-02-04T11:30:42;3.63;;;1.70;;
69256;SDS011;56376;53.356;-1.748;2024-02-04T11:33:10;3.38;;;1.45;;
69256;SDS011;56376;53.356;-1.748;2024-02-04T11:35:36;4.50;;;1.67;;
69256;SDS011;56376;53.356;-1.748;2024-02-04T11:38:05;3.58;;;1.38;;
69256;SDS011;56376;53.356;-1.748;2024-02-04T11:40:31;3.17;;;1.20;;
69256;SDS011;56376;53.356;-1.748;2024-02-04T11:43:06;4.43;;;1.60;;
69256;SDS011;56376;53.356;-1.748;2024-02-04T11:45:33;6.47;;;1.60;;
69256;SDS011;56376;53.356;-1.748;2024-02-04T11:48:06;4.28;;;1.60;;
69256;SDS011;56376;53.356;-1.748;2024-02-04T11:50:32;1.83;;;1.40;;
69256;SDS011;56376;53.356;-1.748;2024-02-04T11:53:10;3.15;;;1.40;;
69256;SDS011;56376;53.356;-1.748;2024-02-04T11:55:41;3.60;;;1.30;;
69256;SDS011;56376;53.356;-1.748;2024-02-04T11:58:07;2.10;;;1.20;;
69256;SDS011;56376;53.356;-1.748;2024-02-04T12:00:34;2.58;;;1.10;;
69256;SDS011;56376;53.356;-1.748;2024-02-04T12:03:04;2.85;;;1.40;;
69256;SDS011;56376;53.356;-1.748;2024-02-04T12:05:31;1.90;;;1.27;;
69256;SDS011;56376;53.356;-1.748;2024-02-04T12:08:01;2.03;;;1.33;;
69256;SDS011;56376;53.356;-1.748;2024-02-04T12:10:31;2.35;;;1.10;;
69256;SDS011;56376;53.356;-1.748;2024-02-04T12:13:00;2.08;;;1.20;;
69256;SDS011;56376;53.356;-1.748;2024-02-04T12:15:28;2.40;;;1.23;;
69256;SDS011;56376;53.356;-1.748;2024-02-04T12:17:55;1.95;;;1.08;;
69256;SDS011;56376;53.356;-1.748;2024-02-04T12:20:29;2.63;;;1.20;;
69256;SDS011;56376;53.356;-1.748;2024-02-04T12:22:55;2.45;;;1.10;;
69256;SDS011;56376;53.356;-1.748;2024-02-04T12:25:21;3.92;;;1.13;;
69256;SDS011;56376;53.356;-1.748;2024-02-04T12:27:46;1.42;;;0.95;;
69256;SDS011;56376;53.356;-1.748;2024-02-04T12:30:13;3.30;;;1.10;;
69256;SDS011;56376;53.356;-1.748;2024-02-04T12:32:39;1.98;;;1.00;;
69256;SDS011;56376;53.356;-1.748;2024-02-04T12:35:05;3.28;;;1.20;;
69256;SDS011;56376;53.356;-1.748;2024-02-04T12:37:31;2.78;;;1.10;;
69256;SDS011;56376;53.356;-1.748;2024-02-04T12:39:59;2.53;;;1.30;;
69256;SDS011;56376;53.356;-1.748;2024-02-04T12:42:24;2.28;;;1.05;;
69256;SDS011;56376;53.356;-1.748;2024-02-04T12:44:50;1.92;;;1.13;;
69256;SDS011;56376;53.356;-1.748;2024-02-04T12:47:20;2.17;;;1.30;;
69256;SDS011;56376;53.356;-1.748;2024-02-04T12:49:46;3.38;;;1.48;;
69256;SDS011;56376;53.356;-1.748;2024-02-04T12:52:11;2.08;;;1.25;;
69256;SDS011;56376;53.356;-1.748;2024-02-04T12:54:43;4.13;;;1.58;;
69256;SDS011;56376;53.356;-1.748;2024-02-04T12:57:09;1.50;;;1.40;;
69256;SDS011;56376;53.356;-1.748;2024-02-04T12:59:38;2.00;;;1.55;;
69256;SDS011;56376;53.356;-1.748;2024-02-04T13:02:07;1.75;;;1.27;;
69256;SDS011;56376;53.356;-1.748;2024-02-04T13:04:36;1.98;;;1.50;;
69256;SDS011;56376;53.356;-1.748;2024-02-04T13:07:06;4.28;;;2.65;;
69256;SDS011;56376;53.356;-1.748;2024-02-04T13:09:32;4.13;;;1.80;;
69256;SDS011;56376;53.356;-1.748;2024-02-04T13:12:04;1.52;;;1.42;;
69256;SDS011;56376;53.356;-1.748;2024-02-04T13:14:32;2.40;;;1.90;;
69256;SDS011;56376;53.356;-1.748;2024-02-04T13:16:58;1.77;;;1.67;;
69256;SDS011;56376;53.356;-1.748;2024-02-04T13:19:23;2.72;;;1.80;;
69256;SDS011;56376;53.356;-1.748;2024-02-04T13:21:49;3.40;;;1.90;;
69256;SDS011;56376;53.356;-1.748;2024-02-04T13:24:15;1.98;;;1.50;;
69256;SDS011;56376;53.356;-1.748;2024-02-04T13:26:40;2.70;;;1.65;;
69256;SDS011;56376;53.356;-1.748;2024-02-04T13:29:06;2.45;;;1.48;;
69256;SDS011;56376;53.356;-1.748;2024-02-04T13:31:31;2.05;;;1.40;;
69256;SDS011;56376;53.356;-1.748;2024-02-04T13:33:57;2.42;;;1.30;;
69256;SDS011;56376;53.356;-1.748;2024-02-04T13:36:23;1.52;;;1.15;;
69256;SDS011;56376;53.356;-1.748;2024-02-04T13:38:48;2.08;;;1.33;;
69256;SDS011;56376;53.356;-1.748;2024-02-04T13:41:14;2.42;;;1.40;;
69256;SDS011;56376;53.356;-1.748;2024-02-04T13:43:39;3.55;;;1.40;;
69256;SDS011;56376;53.356;-1.748;2024-02-04T13:46:05;2.88;;;1.48;;
69256;SDS011;56376;53.356;-1.748;2024-02-04T13:48:30;4.35;;;1.75;;
69256;SDS011;56376;53.356;-1.748;2024-02-04T13:50:56;2.35;;;1.38;;
69256;SDS011;56376;53.356;-1.748;2024-02-04T13:53:21;2.08;;;1.08;;
69256;SDS011;56376;53.356;-1.748;2024-02-04T13:55:50;4.68;;;1.42;;
69256;SDS011;56376;53.356;-1.748;2024-02-04T13:58:16;2.42;;;1.35;;
69256;SDS011;56376;53.356;-1.748;2024-02-04T14:00:43;2.72;;;1.40;;
69256;SDS011;56376;53.356;-1.748;2024-02-04T14:03:09;4.20;;;1.52;;
69256;SDS011;56376;53.356;-1.748;2024-02-04T14:05:34;5.95;;;2.25;;
69256;SDS011;56376;53.356;-1.748;2024-02-04T14:08:00;6.53;;;1.65;;
69256;SDS011;56376;53.356;-1.748;2024-02-04T14:10:25;4.78;;;1.55;;
69256;SDS011;56376;53.356;-1.748;2024-02-04T14:12:51;3.88;;;1.30;;
69256;SDS011;56376;53.356;-1.748;2024-02-04T14:15:17;2.80;;;1.63;;
69256;SDS011;56376;53.356;-1.748;2024-02-04T14:17:42;2.75;;;1.10;;
69256;SDS011;56376;53.356;-1.748;2024-02-04T14:20:08;2.50;;;1.25;;
69256;SDS011;56376;53.356;-1.748;2024-02-04T14:22:34;5.43;;;1.90;;
69256;SDS011;56376;53.356;-1.748;2024-02-04T14:25:00;3.50;;;1.67;;
69256;SDS011;56376;53.356;-1.748;2024-02-04T14:27:26;2.70;;;1.23;;
69256;SDS011;56376;53.356;-1.748;2024-02-04T14:29:51;2.83;;;0.95;;
69256;SDS011;56376;53.356;-1.748;2024-02-04T14:32:17;3.85;;;1.63;;
69256;SDS011;56376;53.356;-1.748;2024-02-04T14:34:43;3.60;;;1.40;;
69256;SDS011;56376;53.356;-1.748;2024-02-04T14:37:09;3.45;;;1.08;;
69256;SDS011;56376;53.356;-1.748;2024-02-04T14:39:35;3.70;;;2.10;;
69256;SDS011;56376;53.356;-1.748;2024-02-04T14:42:01;2.95;;;1.15;;